• Join FlightAware (Why Join?)
  • Login
  • US Flag 
01:52AM EDT


 

Airport Tracker/Info


-or-


 

Live Flight TrackerFlight Track Log ✈ JZA8350 ✈ 27-Jul-2013 ✈ CYVR - CYYF

Flight Track Log - Related Links

Times and Time Zones

All times are in EDT time to prevent confusion due to time zone crossing. See the JZA8350 flight status page for this flight to view local times or setup timezone preferences in your user account.

Time Position Orientation Groundspeed Altitude Reporting Facility
EDT Latitude Longitude Course Direction KTS MPH feet Rate Location/Type
12:09PM 49.1667 -123.1833 90° East 100 115 800  Level Vancouver Center
12:10PM 49.1333 -123.2167 213° Southwest 140 161 1,900 1,200 Climbing Vancouver Center
12:11PM 49.1000 -123.2333 198° South 140 161 3,300 1,200 Climbing Vancouver Center
12:12PM 49.0667 -123.2167 162° South 160 184 4,400 1,080 Climbing Vancouver Center
12:13PM 49.0667 -122.7276 90° East  Level FlightAware Approximate
12:13PM 49.0500 -123.1333 107° East 160 184 5,500  Level Vancouver Center
12:14PM 49.0667 -122.6068 90° East  Level FlightAware Approximate
12:14PM 49.0500 -123.0667 90° East 180 207 6,400  Level Vancouver Center
12:15PM 49.0667 -122.9833 73° East 190 219 7,400 900 Climbing Vancouver Center
12:16PM 49.0667 -122.9000 90° East 200 230 8,300 960 Climbing Vancouver Center
12:17PM 49.0833 -122.8333 69° East 200 230 9,400 960 Climbing Vancouver Center
12:18PM 49.0833 -122.7333 90° East 200 230 10,300 900 Climbing Vancouver Center
12:19PM 49.1000 -122.6500 73° East 210 242 11,300 900 Climbing Vancouver Center
12:20PM 49.1167 -122.5500 76° East 210 242 12,200 900 Climbing Vancouver Center
12:21PM 49.1167 -122.4667 90° East 210 242 13,100 780 Climbing Vancouver Center
12:22PM 49.1333 -122.3667 76° East 220 253 13,800 780 Climbing Vancouver Center
12:23PM 49.1500 -122.2667 76° East 230 265 14,700 780 Climbing Vancouver Center
12:24PM 49.1667 -122.1833 73° East 230 265 15,400 660 Climbing Vancouver Center
12:25PM 49.1833 -122.0833 76° East 230 265 16,100 600 Climbing Vancouver Center
12:26PM 49.1667 -121.9833 104° East 240 276 16,700 600 Climbing Vancouver Center
12:27PM 49.1833 -121.8833 76° East 240 276 17,300 600 Climbing Vancouver Center
12:28PM 49.2000 -121.7833 76° East 240 276 17,900 480 Climbing Vancouver Center
12:29PM 49.2167 -121.6833 76° East 250 288 18,300 420 Climbing Vancouver Center
12:30PM 49.2333 -121.5833 76° East 250 288 18,800 300 Climbing Vancouver Center
12:31PM 49.2500 -121.4667 78° East 260 299 19,000 60 Climbing Vancouver Center
12:32PM 49.2667 -121.3500 78° East 280 322 19,000  Level Vancouver Center
12:33PM 49.2833 -121.2167 79° East 290 334 19,000  Level Vancouver Center
12:34PM 49.2833 -121.1167 90° East 300 345 19,000  Level Vancouver Center
12:35PM 49.2833 -120.9500 90° East 300 345 19,000  Level Vancouver Center
12:36PM 49.3000 -120.8333 78° East 310 357 19,000  Level Vancouver Center
12:37PM 49.3000 -120.7000 90° East 300 345 19,000 -180 Level Vancouver Center
12:38PM 49.3167 -120.5667 79° East 300 345 18,700 -720 Descending Vancouver Center
12:39PM 49.3000 -120.4500 102° East 310 357 17,600 -1,200 Descending Vancouver Center
12:40PM 49.3000 -120.3167 90° East 310 357 16,300 -1,260 Descending Vancouver Center
12:41PM 49.3167 -120.1833 79° East 310 357 15,100 -1,320 Descending Vancouver Center
12:42PM 49.3167 -120.0667 90° East 300 345 13,700 -1,680 Descending Vancouver Center
12:43PM 49.3167 -119.9333 90° East 280 322 11,800 -2,100 Descending Vancouver Center
12:44PM 49.3167 -119.8333 90° East 270 311 9,600 -2,100 Descending Vancouver Center
12:45PM 49.3167 -119.7333 90° East 250 288 7,700 -1,920 Descending Vancouver Center
12:46PM 49.3167 -119.6167 90° East 240 276 5,800 -1,920 Descending Vancouver Center
12:48PM 49.4392 -119.6046 North  Level Estimated
12:55PM 49.4631 -119.6022 North  Level Estimated
12:56PM 49.4631 -119.6022 198° South  Level Estimated